KSYN/SYN METAR and TAF weather

Enter ICAO airport designator
Station Type Date Time Source
KSYN METAR 2022/11/26 09:15 UTC NOAA

KSYN 260915Z AUTO 20005KT 10SM CLR 03/M02 A2989 RMK AO2 T00331025


Station Type Date Time Source
KSYN Decoded METAR 2022/11/26 09:15 UTC NOAA

Stanton, Stanton Airfield, MN, United States (KSYN) 44-28-31N 093-00-58W
Nov 26, 2022 - 04:15 AM EST / 2022.11.26 0915 UTC
Wind: from the SSW (200 degrees) at 6 MPH (5 KT):0
Visibility: 10 mile(s):0
Sky conditions: clear
Temperature: 37.9 F (3.3 C)
Dew Point: 27.5 F (-2.5 C)
Relative Humidity: 65%
Pressure (altimeter): 29.89 in. Hg (1012 hPa)
ob: KSYN 260915Z AUTO 20005KT 10SM CLR 03/M02 A2989 RMK AO2 T00331025
cycle: 9

Station Type Date Time Source
KSYN TAF UTC NOAA

Error!

Example: see airport list